createdAt,value
2018-07-09T00:01:22.738Z,89.68
2018-07-09T00:03:50.760Z,90.21
2018-07-09T00:06:18.843Z,89.99
2018-07-09T00:08:47.232Z,89.57
2018-07-09T00:11:15.244Z,89.02
2018-07-09T00:13:43.274Z,88.33
2018-07-09T00:16:11.316Z,89.52
2018-07-09T00:18:39.288Z,88.98
2018-07-09T00:21:07.709Z,88.02
2018-07-09T00:23:35.769Z,87.34
2018-07-09T00:26:03.810Z,87.11
2018-07-09T00:28:32.032Z,86.61
2018-07-09T00:31:00.204Z,87.55
2018-07-09T00:33:28.274Z,88.30
2018-07-09T00:35:56.318Z,87.52
2018-07-09T00:38:25.482Z,87.24
2018-07-09T00:40:53.574Z,86.44
2018-07-09T00:43:21.723Z,86.70
2018-07-09T00:45:49.823Z,86.61
2018-07-09T00:48:18.778Z,86.47
2018-07-09T00:50:46.970Z,86.18
2018-07-09T00:53:15.230Z,86.40
2018-07-09T00:55:43.717Z,84.46
2018-07-09T00:58:11.773Z,86.29
2018-07-09T01:00:39.973Z,87.24
2018-07-09T01:03:08.061Z,88.28
2018-07-09T01:05:36.117Z,88.37
2018-07-09T01:08:04.125Z,88.88
2018-07-09T01:10:32.275Z,89.95
2018-07-09T01:13:00.262Z,89.81
2018-07-09T01:15:28.365Z,91.07
2018-07-09T01:17:56.375Z,92.27
2018-07-09T01:20:24.555Z,92.87
2018-07-09T01:22:53.029Z,92.63
2018-07-09T01:25:21.070Z,91.79
2018-07-09T01:27:49.216Z,91.69
2018-07-09T01:30:17.328Z,92.56
2018-07-09T01:32:45.406Z,92.29
2018-07-09T01:35:13.932Z,91.06
2018-07-09T01:37:42.603Z,91.60
2018-07-09T01:40:10.939Z,90.87
2018-07-09T01:42:39.314Z,91.18
2018-07-09T01:45:07.380Z,90.90
2018-07-09T01:47:35.465Z,92.11
2018-07-09T01:50:03.633Z,92.03
2018-07-09T01:52:31.792Z,91.39
2018-07-09T01:55:00.242Z,91.52
2018-07-09T01:57:28.180Z,91.61
2018-07-09T01:59:56.397Z,91.61
2018-07-09T02:02:24.709Z,91.94
2018-07-09T02:04:52.724Z,92.46
2018-07-09T02:07:20.782Z,92.56
2018-07-09T02:09:49.968Z,92.99
2018-07-09T02:12:18.052Z,93.65
2018-07-09T02:14:46.052Z,94.81
2018-07-09T02:17:14.057Z,94.52
2018-07-09T02:19:42.164Z,93.17
2018-07-09T02:22:10.279Z,91.71
2018-07-09T02:24:38.296Z,92.69
2018-07-09T02:27:06.383Z,92.14
2018-07-09T02:29:34.487Z,92.28
2018-07-09T02:32:02.569Z,93.57
2018-07-09T02:34:30.609Z,93.34
2018-07-09T02:36:58.811Z,93.48
2018-07-09T02:39:26.826Z,93.43
2018-07-09T02:41:55.036Z,92.77
2018-07-09T02:44:23.000Z,92.18
2018-07-09T02:46:50.967Z,91.80
2018-07-09T02:49:19.367Z,91.49
2018-07-09T02:51:47.473Z,89.45
2018-07-09T02:54:15.540Z,90.87
2018-07-09T02:56:43.591Z,90.87
2018-07-09T02:59:11.611Z,89.37
2018-07-09T03:01:39.619Z,89.83
2018-07-09T03:04:07.720Z,91.02
2018-07-09T03:06:35.726Z,90.14
2018-07-09T03:09:04.626Z,90.36
2018-07-09T03:11:32.651Z,89.79
2018-07-09T03:14:01.674Z,89.67
2018-07-09T03:16:29.709Z,88.66
2018-07-09T03:18:57.823Z,88.91
2018-07-09T03:21:26.085Z,88.32
2018-07-09T03:23:54.116Z,89.74
2018-07-09T03:26:22.244Z,89.63
2018-07-09T03:28:50.294Z,89.01
2018-07-09T03:31:18.379Z,89.68
2018-07-09T03:33:46.442Z,89.39
2018-07-09T03:36:15.463Z,88.61
2018-07-09T03:38:43.515Z,89.22
2018-07-09T03:41:11.528Z,88.71
2018-07-09T03:43:39.516Z,88.97
2018-07-09T03:46:07.719Z,88.76
2018-07-09T03:48:35.810Z,88.40
2018-07-09T03:51:03.790Z,88.65
2018-07-09T03:53:31.996Z,88.49
2018-07-09T03:56:00.035Z,88.22
2018-07-09T03:58:28.047Z,88.55
2018-07-09T04:00:56.109Z,90.22
2018-07-09T04:03:24.223Z,91.71
2018-07-09T04:05:52.201Z,92.85
2018-07-09T04:08:20.578Z,92.98
2018-07-09T04:10:48.584Z,93.14
2018-07-09T04:13:16.623Z,94.04
2018-07-09T04:15:44.652Z,92.66
2018-07-09T04:18:12.672Z,92.86
2018-07-09T04:20:40.665Z,92.86
2018-07-09T04:23:08.989Z,93.07
2018-07-09T04:25:37.033Z,92.70
2018-07-09T04:28:05.130Z,91.81
2018-07-09T04:30:33.221Z,91.69
2018-07-09T04:33:01.269Z,90.56
2018-07-09T04:35:29.313Z,90.35
2018-07-09T04:37:57.465Z,91.16
2018-07-09T04:40:25.360Z,90.03
2018-07-09T04:42:53.356Z,89.90
2018-07-09T04:45:21.437Z,90.25
2018-07-09T04:47:49.420Z,90.92
2018-07-09T04:50:17.610Z,90.57
2018-07-09T04:52:45.633Z,90.74
2018-07-09T04:55:13.692Z,89.97
2018-07-09T04:57:41.724Z,90.18
2018-07-09T05:00:09.747Z,90.53
2018-07-09T05:02:37.748Z,90.97
2018-07-09T05:05:05.803Z,91.31
2018-07-09T05:07:33.801Z,90.32
2018-07-09T05:10:01.808Z,91.26
2018-07-09T05:12:29.833Z,92.01
2018-07-09T05:14:58.242Z,93.00
2018-07-09T05:17:26.483Z,92.96
2018-07-09T05:19:54.504Z,92.39
2018-07-09T05:22:22.477Z,92.58
2018-07-09T05:24:50.584Z,92.44
2018-07-09T05:27:18.632Z,92.89
2018-07-09T05:29:46.638Z,90.83
2018-07-09T05:32:14.654Z,90.77
2018-07-09T05:34:42.676Z,91.83
2018-07-09T05:37:10.672Z,90.23
2018-07-09T05:39:39.261Z,90.89
2018-07-09T05:42:07.394Z,89.56
2018-07-09T05:44:36.123Z,89.45
2018-07-09T05:47:04.358Z,89.64
2018-07-09T05:49:32.594Z,87.41
2018-07-09T05:52:00.719Z,89.26
2018-07-09T05:54:28.780Z,87.54
2018-07-09T05:56:56.822Z,88.79
2018-07-09T05:59:24.872Z,87.75
2018-07-09T06:01:52.936Z,86.33
2018-07-09T06:04:21.026Z,86.81
2018-07-09T06:06:49.101Z,87.38
2018-07-09T06:09:17.118Z,86.77
2018-07-09T06:11:45.118Z,87.39
2018-07-09T06:14:13.122Z,87.35
2018-07-09T06:16:41.120Z,85.25
2018-07-09T06:19:09.512Z,86.44
2018-07-09T06:21:37.629Z,85.31
2018-07-09T06:24:05.946Z,82.78
2018-07-09T06:26:35.856Z,78.88
2018-07-09T06:29:03.935Z,77.75
2018-07-09T06:31:31.953Z,77.33
2018-07-09T06:34:01.644Z,78.84
2018-07-09T06:36:29.880Z,77.58
2018-07-09T06:38:57.941Z,77.89
2018-07-09T06:41:26.615Z,78.36
2018-07-09T06:43:55.053Z,79.08
2018-07-09T06:46:23.074Z,79.83
2018-07-09T06:48:51.245Z,77.74
2018-07-09T06:51:19.318Z,76.16
2018-07-09T06:53:47.406Z,75.31
2018-07-09T06:56:15.384Z,75.72
2018-07-09T06:58:43.426Z,75.89
2018-07-09T07:01:11.490Z,74.35
2018-07-09T07:03:39.566Z,77.68
2018-07-09T07:06:07.604Z,79.78
2018-07-09T07:08:35.943Z,78.00
2018-07-09T07:11:04.193Z,76.81
2018-07-09T07:13:32.261Z,76.75
2018-07-09T07:16:00.646Z,70.45
2018-07-09T07:18:28.668Z,71.75
2018-07-09T07:20:56.782Z,73.30
2018-07-09T07:23:24.786Z,71.76
2018-07-09T07:25:52.828Z,72.48
2018-07-09T07:28:21.612Z,72.08
2018-07-09T07:30:49.624Z,69.75
2018-07-09T07:33:17.674Z,65.48
2018-07-09T07:35:45.920Z,63.13
2018-07-09T07:38:13.933Z,65.55
2018-07-09T07:40:42.109Z,65.20
2018-07-09T07:43:10.177Z,64.64
2018-07-09T07:45:38.258Z,63.75
2018-07-09T07:48:06.344Z,63.59
2018-07-09T07:50:34.502Z,63.13
2018-07-09T07:53:02.614Z,62.86
2018-07-09T07:55:30.677Z,64.12
2018-07-09T07:57:58.694Z,61.77
2018-07-09T08:00:26.686Z,65.52
2018-07-09T08:02:54.774Z,66.72
2018-07-09T08:05:22.832Z,68.44
2018-07-09T08:07:50.831Z,68.84
2018-07-09T08:10:19.180Z,71.50
2018-07-09T08:13:27.166Z,75.57
2018-07-09T08:15:15.456Z,79.69
2018-07-09T08:17:43.548Z,82.77
2018-07-09T08:20:11.545Z,83.31
2018-07-09T08:22:39.589Z,83.97
2018-07-09T08:25:07.845Z,84.74
2018-07-09T08:27:35.870Z,81.74
2018-07-09T08:30:04.099Z,82.14
2018-07-09T08:32:32.267Z,82.46
2018-07-09T08:35:00.328Z,80.96
2018-07-09T08:37:28.472Z,82.00
2018-07-09T08:39:56.697Z,81.42
2018-07-09T08:42:25.432Z,80.76
2018-07-09T08:44:53.546Z,78.66
2018-07-09T08:47:21.707Z,78.65
2018-07-09T08:49:49.796Z,77.12
2018-07-09T08:52:17.855Z,75.22
2018-07-09T08:54:45.865Z,70.26
2018-07-09T08:57:13.930Z,67.33
2018-07-09T08:59:41.972Z,65.11
2018-07-09T09:02:10.304Z,64.99
2018-07-09T09:04:38.305Z,65.46
2018-07-09T09:07:06.304Z,64.78
2018-07-09T09:09:34.515Z,63.05
2018-07-09T09:12:02.570Z,62.27
2018-07-09T09:14:30.577Z,62.59
2018-07-09T09:16:58.659Z,60.80
2018-07-09T09:19:26.722Z,60.03
2018-07-09T09:21:54.852Z,60.35
2018-07-09T09:24:22.898Z,62.94
2018-07-09T09:26:50.964Z,66.12
2018-07-09T09:29:18.988Z,65.49
2018-07-09T09:31:47.064Z,65.84
2018-07-09T09:34:15.119Z,66.85
2018-07-09T09:36:43.230Z,68.17
2018-07-09T09:39:11.276Z,67.37
2018-07-09T09:41:39.397Z,68.28
2018-07-09T09:44:07.435Z,67.62
2018-07-09T09:46:36.679Z,67.31
2018-07-09T09:49:05.248Z,68.32
2018-07-09T09:51:33.284Z,68.89
2018-07-09T09:54:02.269Z,69.57
2018-07-09T09:56:30.382Z,70.91
2018-07-09T09:58:58.417Z,73.20
2018-07-09T10:01:26.457Z,76.88
2018-07-09T10:03:54.465Z,78.49
2018-07-09T10:06:22.485Z,80.27
2018-07-09T10:08:50.861Z,79.46
2018-07-09T10:11:18.884Z,80.54
2018-07-09T10:13:47.023Z,79.21
2018-07-09T10:16:15.109Z,78.10
2018-07-09T10:18:43.191Z,79.58
2018-07-09T10:21:11.485Z,79.48
2018-07-09T10:23:39.596Z,79.35
2018-07-09T10:26:07.666Z,77.09
2018-07-09T10:28:36.392Z,77.21
2018-07-09T10:31:04.862Z,76.18
2018-07-09T10:33:33.028Z,73.88
2018-07-09T10:36:01.213Z,72.14
2018-07-09T10:38:29.957Z,71.99
2018-07-09T10:40:57.977Z,71.18
2018-07-09T10:43:26.090Z,70.89
2018-07-09T10:45:54.140Z,70.38
2018-07-09T10:48:22.284Z,68.29
2018-07-09T10:50:50.364Z,67.93
2018-07-09T10:53:18.447Z,66.19
2018-07-09T10:55:46.505Z,66.43
2018-07-09T10:58:14.609Z,64.87
2018-07-09T11:00:42.700Z,65.22
2018-07-09T11:03:10.721Z,64.22
2018-07-09T11:05:38.913Z,64.69
2018-07-09T11:08:07.004Z,64.32
2018-07-09T11:10:34.997Z,65.12
2018-07-09T11:13:03.053Z,63.43
2018-07-09T11:15:32.081Z,62.55
2018-07-09T11:18:00.580Z,62.73
2018-07-09T11:20:29.086Z,63.61
2018-07-09T11:22:57.130Z,61.82
2018-07-09T11:25:25.249Z,61.36
2018-07-09T11:27:53.218Z,61.38
2018-07-09T11:30:21.291Z,61.35
2018-07-09T11:32:49.346Z,60.52
2018-07-09T11:35:19.428Z,59.22
2018-07-09T11:37:47.808Z,59.73
2018-07-09T11:40:16.127Z,59.28
2018-07-09T11:42:44.183Z,58.10
2018-07-09T11:45:12.366Z,59.64
2018-07-09T11:47:40.611Z,59.43
2018-07-09T11:50:08.906Z,58.78
2018-07-09T11:52:37.037Z,59.07
2018-07-09T11:55:05.172Z,53.40
2018-07-09T11:57:33.581Z,51.80
2018-07-09T12:00:01.830Z,52.66
2018-07-09T12:02:29.943Z,53.37
2018-07-09T12:04:58.069Z,53.95
2018-07-09T12:07:26.616Z,53.23
2018-07-09T12:09:54.875Z,52.18
2018-07-09T12:12:23.005Z,53.20
2018-07-09T12:14:51.082Z,50.96
2018-07-09T12:17:19.221Z,52.81
2018-07-09T12:19:47.347Z,50.47
2018-07-09T12:22:15.524Z,49.08
2018-07-09T12:24:43.562Z,48.25
2018-07-09T12:27:11.655Z,48.51
2018-07-09T12:29:39.728Z,49.53
2018-07-09T12:32:07.829Z,50.64
2018-07-09T12:34:35.962Z,51.22
2018-07-09T12:37:04.078Z,50.88
2018-07-09T12:39:32.118Z,49.95
2018-07-09T12:42:00.175Z,49.85
2018-07-09T12:44:28.246Z,49.58
2018-07-09T12:46:56.358Z,50.85
2018-07-09T12:49:24.487Z,47.65
2018-07-09T12:51:52.535Z,45.92
2018-07-09T12:54:20.619Z,44.11
2018-07-09T12:56:48.703Z,43.88
2018-07-09T12:59:17.126Z,44.25
2018-07-09T13:01:45.310Z,44.15
2018-07-09T13:04:13.473Z,42.22
2018-07-09T13:06:42.301Z,39.71
2018-07-09T13:09:10.361Z,41.33
2018-07-09T13:11:38.612Z,41.99
2018-07-09T13:14:06.709Z,42.72
2018-07-09T13:16:34.796Z,44.30
2018-07-09T13:19:02.983Z,45.48
2018-07-09T13:21:30.992Z,45.10
2018-07-09T13:23:59.045Z,44.66
2018-07-09T13:26:27.183Z,44.44
2018-07-09T13:28:55.321Z,44.53
2018-07-09T13:31:23.439Z,44.44
2018-07-09T13:33:51.652Z,43.57
2018-07-09T13:36:19.778Z,42.59
2018-07-09T13:38:48.053Z,43.83
2018-07-09T13:41:16.234Z,43.08
2018-07-09T13:43:44.345Z,42.89
2018-07-09T13:46:12.471Z,42.50
2018-07-09T13:48:41.226Z,43.48
2018-07-09T13:51:09.447Z,43.46
2018-07-09T13:53:37.597Z,44.49
2018-07-09T13:56:05.949Z,43.34
2018-07-09T13:58:34.052Z,44.58
2018-07-09T14:01:02.081Z,45.55
2018-07-09T14:03:30.156Z,45.16
2018-07-09T14:06:04.687Z,42.19
2018-07-09T14:08:33.054Z,42.11
2018-07-09T14:11:01.188Z,41.35
2018-07-09T14:13:29.192Z,41.62
2018-07-09T14:15:57.264Z,40.96
2018-07-09T14:18:25.358Z,41.08
2018-07-09T14:20:53.471Z,40.23
2018-07-09T14:23:21.497Z,40.26
2018-07-09T14:25:49.518Z,40.03
2018-07-09T14:28:17.666Z,40.76
2018-07-09T14:30:45.739Z,40.24
2018-07-09T14:33:13.897Z,39.66
2018-07-09T14:35:42.015Z,40.27
2018-07-09T14:38:10.079Z,40.12
2018-07-09T14:40:38.131Z,39.65
2018-07-09T14:43:06.304Z,38.42
2018-07-09T14:45:34.369Z,39.26
2018-07-09T14:48:02.523Z,39.62
2018-07-09T14:50:30.754Z,43.27
2018-07-09T14:52:58.805Z,46.08
2018-07-09T14:55:27.484Z,47.02
2018-07-09T14:57:55.563Z,48.24
2018-07-09T15:00:23.639Z,49.19
2018-07-09T15:02:51.633Z,46.11
2018-07-09T15:05:21.024Z,48.23
2018-07-09T15:07:49.050Z,52.71
2018-07-09T15:10:17.053Z,56.64
2018-07-09T15:12:45.138Z,56.54
2018-07-09T15:15:13.211Z,56.30
2018-07-09T15:17:41.688Z,57.76
2018-07-09T15:20:09.720Z,58.09
2018-07-09T15:22:37.706Z,58.05
2018-07-09T15:25:06.801Z,55.89
2018-07-09T15:27:35.709Z,52.75
2018-07-09T15:30:04.007Z,52.39
2018-07-09T15:32:32.444Z,51.93
2018-07-09T15:35:00.557Z,51.38
2018-07-09T15:37:29.001Z,47.80
2018-07-09T15:39:57.060Z,49.74
2018-07-09T15:42:25.721Z,50.61
2018-07-09T15:44:53.789Z,49.68
2018-07-09T15:47:21.814Z,50.74
2018-07-09T15:49:49.874Z,50.13
2018-07-09T15:52:17.987Z,50.52
2018-07-09T15:54:46.000Z,50.30
2018-07-09T15:57:14.032Z,50.68
2018-07-09T15:59:42.191Z,50.03
2018-07-09T16:02:11.250Z,51.87
2018-07-09T16:04:39.304Z,51.12
2018-07-09T16:07:07.384Z,52.53
2018-07-09T16:09:35.450Z,54.04
2018-07-09T16:12:03.890Z,54.41
2018-07-09T16:14:31.901Z,55.83
2018-07-09T16:16:59.951Z,56.35
2018-07-09T16:19:28.058Z,57.30
2018-07-09T16:21:56.869Z,58.01
2018-07-09T16:24:24.912Z,59.33
2018-07-09T16:26:52.961Z,59.44
2018-07-09T16:29:21.221Z,60.61
2018-07-09T16:31:49.228Z,60.14
2018-07-09T16:34:17.242Z,60.35
2018-07-09T16:36:45.674Z,59.99
2018-07-09T16:39:13.769Z,61.00
2018-07-09T16:41:41.904Z,60.91
2018-07-09T16:44:10.025Z,61.22
2018-07-09T16:46:38.438Z,61.70
2018-07-09T16:49:06.637Z,62.49
2018-07-09T16:51:34.713Z,63.18
2018-07-09T16:54:02.917Z,62.96
2018-07-09T16:56:30.994Z,62.48
2018-07-09T16:58:59.100Z,62.38
2018-07-09T17:01:27.289Z,63.22
2018-07-09T17:03:55.357Z,63.18
2018-07-09T17:06:23.471Z,63.71
2018-07-09T17:08:51.561Z,63.71
2018-07-09T17:11:19.713Z,62.66
2018-07-09T17:13:48.238Z,63.80
2018-07-09T17:16:16.344Z,63.13
2018-07-09T17:18:44.713Z,63.82
2018-07-09T17:21:13.017Z,63.50
2018-07-09T17:23:41.287Z,63.63
2018-07-09T17:26:10.300Z,65.07
2018-07-09T17:28:38.969Z,65.07
2018-07-09T17:31:06.992Z,64.02
2018-07-09T17:33:35.326Z,65.01
2018-07-09T17:36:03.458Z,66.37
2018-07-09T17:38:31.641Z,66.73
2018-07-09T17:40:59.901Z,66.12
2018-07-09T17:43:27.989Z,67.07
2018-07-09T17:45:56.017Z,66.83
2018-07-09T17:48:24.081Z,66.71
2018-07-09T17:50:52.209Z,66.55
2018-07-09T17:53:20.506Z,67.35
2018-07-09T17:55:48.632Z,67.55
2018-07-09T17:58:16.729Z,67.86
2018-07-09T18:00:44.823Z,67.57
2018-07-09T18:03:12.810Z,67.60
2018-07-09T18:05:40.952Z,66.47
2018-07-09T18:08:09.164Z,66.68
2018-07-09T18:10:37.309Z,66.44
2018-07-09T18:13:05.478Z,67.62
2018-07-09T18:15:33.521Z,67.28
2018-07-09T18:18:01.612Z,67.23
2018-07-09T18:20:29.721Z,66.46
2018-07-09T18:22:57.757Z,66.68
2018-07-09T18:25:26.023Z,66.86
2018-07-09T18:27:54.632Z,66.99
2018-07-09T18:30:22.654Z,66.91
2018-07-09T18:32:50.829Z,66.98
2018-07-09T18:35:18.930Z,65.46
2018-07-09T18:37:47.072Z,65.28
2018-07-09T18:40:15.227Z,64.97
2018-07-09T18:42:43.332Z,63.82
2018-07-09T18:45:11.519Z,64.37
2018-07-09T18:47:39.629Z,65.52
2018-07-09T18:50:07.889Z,65.66
2018-07-09T18:52:37.202Z,66.18
2018-07-09T18:55:06.629Z,66.28
2018-07-09T18:57:34.781Z,66.88
2018-07-09T19:00:03.013Z,66.59
2018-07-09T19:02:31.091Z,66.29
2018-07-09T19:05:00.716Z,65.83
2018-07-09T19:07:29.699Z,66.32
2018-07-09T19:09:58.057Z,66.19
2018-07-09T19:12:32.082Z,66.22
2018-07-09T19:15:00.551Z,66.70
2018-07-09T19:18:10.197Z,66.71
2018-07-09T19:21:19.289Z,66.97
2018-07-09T19:23:45.999Z,67.54
2018-07-09T19:26:12.568Z,66.83
2018-07-09T19:28:39.204Z,66.61
2018-07-09T19:31:05.902Z,67.01
2018-07-09T19:33:32.438Z,68.73
2018-07-09T19:35:59.442Z,70.94
2018-07-09T19:38:26.120Z,71.50
2018-07-09T19:40:52.751Z,73.53
2018-07-09T19:43:19.494Z,74.98
2018-07-09T19:45:46.191Z,77.10
2018-07-09T19:48:13.310Z,76.08
2018-07-09T19:50:39.961Z,75.70
2018-07-09T19:53:06.809Z,78.34
2018-07-09T19:55:33.439Z,78.36
2018-07-09T19:58:00.037Z,81.54
2018-07-09T20:00:27.044Z,81.81
2018-07-09T20:02:54.254Z,83.05
2018-07-09T20:05:20.861Z,83.43
2018-07-09T20:07:47.838Z,83.41
2018-07-09T20:10:19.882Z,85.42
2018-07-09T20:12:51.886Z,84.88
2018-07-09T20:15:23.923Z,86.73
2018-07-09T20:17:50.563Z,85.82
2018-07-09T20:20:17.173Z,86.53
2018-07-09T20:22:43.876Z,88.49
2018-07-09T20:25:10.453Z,87.33
2018-07-09T20:27:37.083Z,88.65
2018-07-09T20:30:03.749Z,88.47
2018-07-09T20:32:30.363Z,90.34
2018-07-09T20:34:57.028Z,89.95
2018-07-09T20:37:23.633Z,90.19
2018-07-09T20:39:50.228Z,90.27
2018-07-09T20:42:16.830Z,91.16
2018-07-09T20:44:43.453Z,91.96
2018-07-09T20:47:10.181Z,91.61
2018-07-09T20:49:36.994Z,92.88
2018-07-09T20:52:03.627Z,92.41
2018-07-09T20:54:30.326Z,93.75
2018-07-09T20:56:56.924Z,92.75
2018-07-09T20:59:24.148Z,92.47
2018-07-09T21:01:50.811Z,93.01
2018-07-09T21:04:22.868Z,93.41
2018-07-09T21:06:49.480Z,93.42
2018-07-09T21:09:16.968Z,93.32
2018-07-09T21:11:44.002Z,92.19
2018-07-09T21:14:10.594Z,93.12
2018-07-09T21:16:37.170Z,93.92
2018-07-09T21:19:03.808Z,92.02
2018-07-09T21:21:30.528Z,92.40
2018-07-09T21:23:58.047Z,92.75
2018-07-09T21:26:26.799Z,91.68
2018-07-09T21:28:53.417Z,91.94
2018-07-09T21:31:20.084Z,92.92
2018-07-09T21:33:46.721Z,94.21
2018-07-09T21:36:13.550Z,94.06
2018-07-09T21:38:41.038Z,93.77
2018-07-09T21:41:08.037Z,93.47
2018-07-09T21:43:34.766Z,93.59
2018-07-09T21:46:01.410Z,92.32
2018-07-09T21:48:29.779Z,92.82
2018-07-09T21:50:56.183Z,92.19
2018-07-09T21:53:23.472Z,91.76
2018-07-09T21:55:50.304Z,92.10
2018-07-09T21:58:16.969Z,92.75
2018-07-09T22:00:43.585Z,93.42
2018-07-09T22:03:10.124Z,93.28
2018-07-09T22:05:36.739Z,93.15
2018-07-09T22:08:04.028Z,93.04
2018-07-09T22:10:30.684Z,91.88
2018-07-09T22:12:57.319Z,92.95
2018-07-09T22:15:23.925Z,91.08
2018-07-09T22:17:50.516Z,91.42
2018-07-09T22:20:17.124Z,91.25
2018-07-09T22:22:43.752Z,89.17
2018-07-09T22:25:10.394Z,89.91
2018-07-09T22:27:36.988Z,89.33
2018-07-09T22:30:03.612Z,89.44
2018-07-09T22:32:31.637Z,91.00
2018-07-09T22:34:59.678Z,91.60
2018-07-09T22:37:27.775Z,92.02
2018-07-09T22:39:55.819Z,91.64
2018-07-09T22:42:24.347Z,91.78
2018-07-09T22:44:52.367Z,92.28
2018-07-09T22:47:20.407Z,92.69
2018-07-09T22:49:48.411Z,92.86
2018-07-09T22:52:16.445Z,92.47
2018-07-09T22:54:44.478Z,92.54
2018-07-09T22:57:12.610Z,92.55
2018-07-09T22:59:40.615Z,92.95
2018-07-09T23:02:08.932Z,92.60
2018-07-09T23:04:36.956Z,93.38
2018-07-09T23:07:05.916Z,94.10
2018-07-09T23:10:04.383Z,93.12
2018-07-09T23:13:15.786Z,93.74
2018-07-09T23:16:14.204Z,94.63
2018-07-09T23:18:56.276Z,94.89
2018-07-09T23:22:28.250Z,94.07
2018-07-09T23:24:55.120Z,93.55
2018-07-09T23:27:21.775Z,92.65
2018-07-09T23:29:48.377Z,91.72
2018-07-09T23:32:14.972Z,92.84
2018-07-09T23:34:41.614Z,92.49
2018-07-09T23:37:08.341Z,93.33
2018-07-09T23:39:34.988Z,91.68
2018-07-09T23:42:01.730Z,90.95
2018-07-09T23:44:28.337Z,90.76
2018-07-09T23:46:54.990Z,90.68
2018-07-09T23:49:21.633Z,91.87
2018-07-09T23:51:48.281Z,91.81
2018-07-09T23:54:14.886Z,92.57
2018-07-09T23:59:01.777Z,88.66
